Time;durP1;ratioP1;P1;durP2;ratioP2;P2;SDS_P1;SDS_P2;PMS_P1;PMS_P2;Temp;Humidity;BMP_temperature;BMP_pressure;BME280_temperature;BME280_humidity;BME280_pressure;Samples;Min_cycle;Max_cycle;Signal;HPM_P1;HPM_P2
2023/02/19 00:01:08;;;;;;;114.70;59.67;;;230.80;2252.80;;;;;;5051382;28;20095;-63
2023/02/19 00:03:36;;;;;;;62.20;32.92;;;230.80;2252.80;;;;;;5051443;28;20017;-65
2023/02/19 00:06:03;;;;;;;79.07;40.58;;;230.70;2252.80;;;;;;5051583;28;20036;-64
2023/02/19 00:08:30;;;;;;;127.05;64.43;;;230.70;2252.80;;;;;;5051327;28;20028;-62
2023/02/19 00:11:04;;;;;;;144.60;76.10;;;230.70;2252.80;;;;;;5051201;28;20032;-64
2023/02/19 00:13:30;;;;;;;140.07;70.32;;;230.70;2252.80;;;;;;5051262;28;20036;-65
2023/02/19 00:15:56;;;;;;;115.93;57.85;;;230.70;2252.80;;;;;;5051326;28;20032;-64
2023/02/19 00:18:23;;;;;;;129.25;65.25;;;230.70;2252.80;;;;;;5051297;28;20032;-61
2023/02/19 00:20:49;;;;;;;173.25;88.30;;;230.70;2252.80;;;;;;5050851;28;20037;-64
2023/02/19 00:23:14;;;;;;;132.93;63.38;;;230.70;2252.80;;;;;;5051102;28;20028;-66
2023/02/19 00:25:40;;;;;;;41.00;19.60;;;230.70;2252.80;;;;;;5050925;28;20111;-64
2023/02/19 00:28:06;;;;;;;63.85;33.55;;;230.70;2252.80;;;;;;5051049;28;20021;-61
2023/02/19 00:30:32;;;;;;;31.48;19.58;;;230.60;2252.80;;;;;;5051097;28;20364;-61
2023/02/19 00:32:57;;;;;;;76.32;36.80;;;230.60;2252.80;;;;;;5050853;28;20021;-63
2023/02/19 00:35:23;;;;;;;128.93;65.22;;;230.50;2252.80;;;;;;5051233;28;20021;-62
2023/02/19 00:37:49;;;;;;;104.95;51.47;;;230.40;2252.80;;;;;;5050874;28;20021;-62
2023/02/19 00:40:15;;;;;;;72.10;36.05;;;230.40;2252.80;;;;;;5050876;28;20036;-59
2023/02/19 00:42:40;;;;;;;76.55;42.50;;;230.40;2252.80;;;;;;5050651;28;20104;-61
2023/02/19 00:45:06;;;;;;;72.85;36.75;;;230.40;2252.80;;;;;;5050667;28;20495;-62
2023/02/19 00:47:33;;;;;;;90.93;46.47;;;230.40;2252.80;;;;;;5050737;28;20031;-64
2023/02/19 00:49:59;;;;;;;90.55;43.70;;;230.40;2252.80;;;;;;5050642;28;20082;-64
2023/02/19 00:52:25;;;;;;;34.83;15.52;;;230.40;2252.80;;;;;;5050783;28;20534;-61
2023/02/19 00:54:50;;;;;;;47.55;26.58;;;230.40;2252.80;;;;;;5049888;28;20489;-65
2023/02/19 00:57:16;;;;;;;96.80;53.10;;;230.40;2252.80;;;;;;5050787;28;20836;-63
2023/02/19 00:59:42;;;;;;;33.25;18.48;;;230.40;2252.80;;;;;;5050590;28;20037;-63
2023/02/19 01:02:07;;;;;;;113.78;52.78;;;205.60;2252.80;;;;;;5050333;28;20048;-62
2023/02/19 01:04:33;;;;;;;130.98;67.00;;;205.50;2252.80;;;;;;5050438;28;20029;-61
2023/02/19 01:06:59;;;;;;;37.33;24.30;;;205.50;2252.80;;;;;;5050511;28;20028;-62
2023/02/19 01:09:24;;;;;;;83.18;42.60;;;205.40;2252.80;;;;;;5050486;28;20021;-64
2023/02/19 01:11:50;;;;;;;98.43;46.78;;;205.40;2252.80;;;;;;5050049;28;20025;-63
2023/02/19 01:14:16;;;;;;;39.08;24.23;;;205.40;2252.80;;;;;;5050516;28;20053;-62
2023/02/19 01:16:41;;;;;;;40.55;25.05;;;205.40;2252.80;;;;;;5050184;28;20032;-62
2023/02/19 01:19:07;;;;;;;45.80;28.08;;;205.50;2252.80;;;;;;5047398;28;20043;-63
2023/02/19 01:21:33;;;;;;;111.22;63.42;;;205.60;2252.80;;;;;;5039914;28;20029;-62
2023/02/19 01:23:59;;;;;;;38.95;23.40;;;205.50;2252.80;;;;;;5038044;28;20026;-61
2023/02/19 01:26:27;;;;;;;33.72;19.30;;;205.50;2252.80;;;;;;5038835;28;20025;-60
2023/02/19 01:28:53;;;;;;;33.50;20.48;;;205.50;2252.80;;;;;;5039758;28;20029;-62
2023/02/19 01:31:22;;;;;;;27.45;16.85;;;205.60;2252.80;;;;;;5038020;28;20026;-62
2023/02/19 01:33:50;;;;;;;44.83;27.98;;;205.50;2252.80;;;;;;5038204;28;20025;-62
2023/02/19 01:36:17;;;;;;;65.05;36.17;;;205.40;2252.80;;;;;;5037118;28;20021;-63
2023/02/19 01:38:43;;;;;;;22.90;15.13;;;205.30;2252.80;;;;;;5038962;28;20049;-62
2023/02/19 01:41:15;;;;;;;23.13;12.88;;;205.40;2252.80;;;;;;5037421;28;20033;-63
2023/02/19 01:44:01;;;;;;;25.08;16.20;;;205.30;2252.80;;;;;;5036656;28;20032;-63
2023/02/19 01:46:32;;;;;;;54.05;30.52;;;205.20;2252.80;;;;;;5039095;28;20037;-64
2023/02/19 01:49:20;;;;;;;31.10;19.40;;;205.20;2252.80;;;;;;5036787;28;20021;-61
2023/02/19 01:51:55;;;;;;;38.47;23.90;;;205.20;2252.80;;;;;;5037169;28;20357;-68
2023/02/19 01:54:23;;;;;;;34.22;20.20;;;205.20;2252.80;;;;;;5036767;28;20032;-64
2023/02/19 01:56:50;;;;;;;47.42;28.77;;;205.20;2252.80;;;;;;5038842;28;20057;-60
2023/02/19 01:59:17;;;;;;;43.67;23.48;;;205.10;2252.80;;;;;;5037378;28;20445;-65
2023/02/19 02:01:43;;;;;;;20.40;13.38;;;205.20;2252.80;;;;;;5039014;28;20029;-64
2023/02/19 02:04:11;;;;;;;21.38;11.60;;;205.20;2252.80;;;;;;5041612;28;20018;-63
2023/02/19 02:06:47;;;;;;;29.67;18.48;;;205.20;2252.80;;;;;;5040095;28;20084;-61
2023/02/19 02:11:58;;;;;;;120.70;60.58;;;205.10;2252.80;;;;;;5040421;28;20098;-63
2023/02/19 02:14:28;;;;;;;142.48;74.22;;;205.10;2252.80;;;;;;5042371;28;20465;-65
2023/02/19 02:17:11;;;;;;;205.68;98.53;;;205.10;2252.80;;;;;;5041100;28;20570;-66
2023/02/19 02:20:04;;;;;;;238.98;108.38;;;205.10;2252.80;;;;;;5040922;28;20030;-63
2023/02/19 02:22:38;;;;;;;74.97;37.83;;;205.10;2252.80;;;;;;5042746;28;20065;-62
2023/02/19 02:25:41;;;;;;;98.88;48.97;;;205.10;2252.80;;;;;;5041977;28;20028;-62
2023/02/19 02:28:42;;;;;;;44.75;25.45;;;205.10;2252.80;;;;;;5040107;28;20017;-64
2023/02/19 02:31:33;;;;;;;37.88;20.83;;;205.10;2252.80;;;;;;5039949;28;20031;-63
2023/02/19 02:34:21;;;;;;;45.03;26.17;;;205.00;2252.80;;;;;;5040908;28;20036;-63
2023/02/19 02:36:52;;;;;;;59.13;34.20;;;204.90;2252.80;;;;;;5042049;28;20013;-66
2023/02/19 02:39:20;;;;;;;31.77;27.10;;;204.90;2252.80;;;;;;5039911;28;20025;-63
2023/02/19 02:44:40;;;;;;;22.17;14.00;;;180.10;2252.80;;;;;;5031705;28;20531;-65
2023/02/19 02:47:39;;;;;;;41.55;21.02;;;179.90;2252.80;;;;;;5041703;28;20463;-65
2023/02/19 02:50:05;;;;;;;107.18;55.97;;;180.00;2252.80;;;;;;5034622;28;20025;-60
2023/02/19 02:55:19;;;;;;;119.40;56.28;;;180.00;2252.80;;;;;;5031727;28;20610;-64
2023/02/19 02:57:45;;;;;;;38.45;23.40;;;180.10;2252.80;;;;;;5041673;28;20039;-64
2023/02/19 03:00:12;;;;;;;98.03;54.40;;;180.10;2252.80;;;;;;5040372;28;20075;-62
2023/02/19 03:02:40;;;;;;;48.15;26.38;;;180.00;2252.80;;;;;;5040317;28;20021;-62
2023/02/19 03:08:14;;;;;;;39.70;21.73;;;180.10;2252.80;;;;;;5031790;28;20092;-66
2023/02/19 03:10:50;;;;;;;25.90;14.98;;;180.10;2252.80;;;;;;5039571;28;20491;-61
2023/02/19 03:19:20;;;;;;;14.45;9.13;;;179.70;2252.80;;;;;;5030995;28;20383;-66
2023/02/19 03:21:58;;;;;;;19.25;11.68;;;179.60;2252.80;;;;;;5034141;28;20760;-68
2023/02/19 03:27:15;;;;;;;23.88;15.32;;;179.40;2252.80;;;;;;5033040;28;20032;-69
2023/02/19 03:29:43;;;;;;;35.17;21.05;;;179.40;2252.80;;;;;;5044664;28;20032;-62
2023/02/19 03:32:25;;;;;;;13.00;7.63;;;179.50;2252.80;;;;;;5043900;28;20028;-66
2023/02/19 03:35:05;;;;;;;27.35;17.98;;;179.40;2252.80;;;;;;5044478;28;20017;-70
2023/02/19 03:37:33;;;;;;;19.15;10.48;;;179.40;2252.80;;;;;;5043119;28;20080;-66
2023/02/19 03:39:59;;;;;;;72.57;42.67;;;179.20;2252.80;;;;;;5044540;28;20041;-62
2023/02/19 03:42:53;;;;;;;57.67;33.60;;;154.50;2252.80;;;;;;5041992;28;20047;-64
2023/02/19 03:45:22;;;;;;;31.80;18.00;;;154.50;2252.80;;;;;;5043283;28;20194;-64
2023/02/19 03:47:58;;;;;;;18.00;10.25;;;154.50;2252.80;;;;;;5038945;28;20017;-66
2023/02/19 03:50:55;;;;;;;27.33;14.88;;;179.20;2252.80;;;;;;5042341;28;20071;-62
2023/02/19 03:53:27;;;;;;;55.90;32.63;;;179.20;2252.80;;;;;;5038938;28;20037;-64
2023/02/19 03:55:59;;;;;;;197.90;96.00;;;179.30;2252.80;;;;;;5037640;28;20487;-64
2023/02/19 03:58:52;;;;;;;174.02;82.05;;;179.30;2252.80;;;;;;5038572;28;20483;-65
2023/02/19 04:01:29;;;;;;;116.68;63.00;;;179.40;2252.80;;;;;;5041136;28;20561;-65
2023/02/19 04:04:17;;;;;;;146.93;78.32;;;179.40;2252.80;;;;;;5040840;28;20471;-63
2023/02/19 04:06:46;;;;;;;104.90;52.45;;;179.30;2252.80;;;;;;5033922;28;20037;-66
2023/02/19 04:09:15;;;;;;;156.68;69.72;;;179.30;2252.80;;;;;;5033832;28;20025;-63
2023/02/19 04:11:41;;;;;;;21.25;10.52;;;179.40;2252.80;;;;;;5033314;28;20024;-60
2023/02/19 04:14:16;;;;;;;12.20;6.40;;;154.50;2252.80;;;;;;5038614;28;20191;-64
2023/02/19 04:16:47;;;;;;;11.93;7.05;;;154.30;2252.80;;;;;;5041012;28;20082;-59
2023/02/19 04:19:18;;;;;;;46.72;27.58;;;154.20;2252.80;;;;;;5040149;28;20483;-63
2023/02/19 04:21:45;;;;;;;14.38;7.78;;;154.30;2252.80;;;;;;5039156;28;20040;-62
2023/02/19 04:24:21;;;;;;;45.13;26.45;;;154.50;2252.80;;;;;;5040041;28;20025;-63
2023/02/19 04:26:47;;;;;;;22.75;11.63;;;179.20;2252.80;;;;;;5039244;28;20035;-64
2023/02/19 04:29:12;;;;;;;36.50;20.88;;;179.30;2252.80;;;;;;5039739;28;20017;-65
2023/02/19 04:31:39;;;;;;;17.92;10.57;;;179.30;2252.80;;;;;;5040717;28;20467;-64
2023/02/19 04:34:05;;;;;;;96.50;50.22;;;179.50;2252.80;;;;;;5038831;28;20032;-66
2023/02/19 04:36:31;;;;;;;27.48;17.00;;;179.50;2252.80;;;;;;5039839;28;20107;-64
2023/02/19 04:38:57;;;;;;;24.77;12.85;;;179.50;2252.80;;;;;;5040345;28;20025;-60
2023/02/19 04:41:23;;;;;;;19.58;11.40;;;179.50;2252.80;;;;;;5038363;28;20039;-62
2023/02/19 04:43:49;;;;;;;41.33;23.83;;;179.50;2252.80;;;;;;5039615;28;20439;-64
2023/02/19 04:46:14;;;;;;;32.13;18.98;;;179.60;2252.80;;;;;;5040074;28;20544;-63
2023/02/19 04:48:41;;;;;;;32.38;19.98;;;179.60;2252.80;;;;;;5038193;28;20498;-63
2023/02/19 04:51:08;;;;;;;26.92;14.63;;;179.70;2252.80;;;;;;5039779;28;20033;-64
2023/02/19 04:53:35;;;;;;;23.00;14.75;;;179.70;2252.80;;;;;;5039906;28;20426;-61
2023/02/19 04:56:13;;;;;;;16.20;9.75;;;179.70;2252.80;;;;;;5038256;28;20436;-66
2023/02/19 04:58:39;;;;;;;19.75;11.55;;;179.70;2252.80;;;;;;5038217;28;20017;-64
2023/02/19 05:01:05;;;;;;;14.52;10.20;;;179.70;2252.80;;;;;;5037646;28;20033;-66
2023/02/19 05:03:31;;;;;;;28.13;16.25;;;179.70;2252.80;;;;;;5039004;28;20021;-66
2023/02/19 05:06:00;;;;;;;19.25;11.68;;;179.70;2252.80;;;;;;5038389;28;20534;-67
2023/02/19 05:08:26;;;;;;;20.25;11.65;;;179.70;2252.80;;;;;;5037917;28;20021;-65
2023/02/19 05:10:55;;;;;;;52.53;30.65;;;179.60;2252.80;;;;;;5039156;28;20017;-66
2023/02/19 05:13:21;;;;;;;27.52;16.65;;;179.60;2252.80;;;;;;5037753;28;20099;-65
2023/02/19 05:16:04;;;;;;;22.88;14.93;;;179.60;2252.80;;;;;;5039738;28;20025;-62
2023/02/19 05:18:31;;;;;;;17.50;11.02;;;179.50;2252.80;;;;;;5038671;28;20120;-64
2023/02/19 05:20:58;;;;;;;51.08;29.65;;;179.40;2252.80;;;;;;5038296;28;20538;-64
2023/02/19 05:23:24;;;;;;;16.95;9.77;;;179.30;2252.80;;;;;;5040319;28;20029;-66
2023/02/19 05:25:50;;;;;;;24.48;14.73;;;179.40;2252.80;;;;;;5038778;28;20167;-64
2023/02/19 05:28:16;;;;;;;35.33;20.02;;;179.40;2252.80;;;;;;5020283;28;20131;-61
2023/02/19 05:30:43;;;;;;;50.20;24.38;;;179.30;2252.80;;;;;;5039909;28;20029;-65
2023/02/19 05:33:09;;;;;;;12.00;8.80;;;179.40;2252.80;;;;;;5038590;28;20037;-62
2023/02/19 05:35:46;;;;;;;27.52;16.38;;;179.20;2252.80;;;;;;5038877;28;20025;-63
2023/02/19 05:38:12;;;;;;;28.90;11.82;;;179.20;2252.80;;;;;;5037199;28;20025;-66
2023/02/19 05:40:38;;;;;;;85.70;42.20;;;179.20;2252.80;;;;;;5040678;28;20547;-65
2023/02/19 05:43:05;;;;;;;126.55;66.82;;;179.20;2252.80;;;;;;5041120;28;20036;-66
2023/02/19 05:45:31;;;;;;;29.63;16.70;;;179.20;2252.80;;;;;;5042366;28;20077;-65
2023/02/19 05:47:56;;;;;;;62.42;31.95;;;179.30;2252.80;;;;;;5042425;28;20021;-64
2023/02/19 05:50:22;;;;;;;25.48;13.07;;;179.40;2252.80;;;;;;5043877;28;20029;-64
2023/02/19 05:52:48;;;;;;;31.92;17.13;;;179.30;2252.80;;;;;;5042170;28;20033;-67
2023/02/19 05:55:14;;;;;;;12.52;8.65;;;179.40;2252.80;;;;;;5042468;28;20028;-64
2023/02/19 05:57:44;;;;;;;70.35;39.28;;;179.50;2252.80;;;;;;5043442;28;20471;-63
2023/02/19 06:00:12;;;;;;;37.60;17.90;;;179.60;2252.80;;;;;;5042092;28;20039;-62
2023/02/19 06:02:38;;;;;;;67.40;37.80;;;179.70;2252.80;;;;;;5041607;28;20064;-66
2023/02/19 06:05:05;;;;;;;100.38;64.78;;;179.80;2252.80;;;;;;5043908;28;20024;-65
2023/02/19 06:07:31;;;;;;;73.13;47.17;;;180.00;2252.80;;;;;;5042059;28;20345;-62
2023/02/19 06:09:56;;;;;;;15.73;11.00;;;180.10;2252.80;;;;;;5041858;28;20017;-66
2023/02/19 06:12:22;;;;;;;43.10;28.48;;;204.80;2252.80;;;;;;5043224;28;20497;-66
2023/02/19 06:14:48;;;;;;;85.22;47.38;;;204.80;2252.80;;;;;;5041532;28;20089;-64
2023/02/19 06:17:14;;;;;;;170.80;90.25;;;204.90;2252.80;;;;;;5042043;28;20052;-64
2023/02/19 06:19:40;;;;;;;95.18;49.58;;;205.00;2252.80;;;;;;5042753;28;20028;-62
2023/02/19 06:22:07;;;;;;;65.85;37.85;;;205.00;2252.80;;;;;;5041598;28;20022;-61
2023/02/19 06:24:33;;;;;;;17.52;11.15;;;205.00;2252.80;;;;;;5042083;28;20452;-62
2023/02/19 06:26:59;;;;;;;15.00;10.32;;;205.10;2252.80;;;;;;5035541;28;20102;-67
2023/02/19 06:29:24;;;;;;;15.52;9.30;;;205.00;2252.80;;;;;;5033462;28;20022;-66
2023/02/19 06:31:50;;;;;;;12.13;9.55;;;205.00;2252.80;;;;;;5033235;28;20036;-61
2023/02/19 06:34:16;;;;;;;17.15;10.68;;;205.20;2252.80;;;;;;5033598;28;20021;-64
2023/02/19 06:36:41;;;;;;;22.05;15.65;;;205.10;2252.80;;;;;;5033443;28;20049;-65
2023/02/19 06:39:09;;;;;;;30.25;21.70;;;205.20;2252.80;;;;;;5015428;28;20163;-66
2023/02/19 06:41:34;;;;;;;79.25;51.80;;;205.40;2252.80;;;;;;5033073;28;20484;-63
2023/02/19 06:44:00;;;;;;;77.95;49.58;;;205.50;2252.80;;;;;;5032945;28;20045;-65
2023/02/19 06:46:26;;;;;;;59.35;38.60;;;205.70;2252.80;;;;;;5039131;28;20032;-63
2023/02/19 06:48:51;;;;;;;53.50;35.22;;;230.40;2252.80;;;;;;5041004;28;20503;-64
2023/02/19 06:51:22;;;;;;;113.88;66.45;;;230.50;2252.80;;;;;;5042213;28;20049;-62
2023/02/19 06:53:48;;;;;;;114.40;67.30;;;230.60;2252.80;;;;;;5043912;28;20080;-63
2023/02/19 06:56:32;;;;;;;59.20;35.13;;;230.70;2252.80;;;;;;5052915;28;20422;-62
2023/02/19 06:59:00;;;;;;;29.00;18.38;;;230.90;2252.80;;;;;;5052527;28;20475;-65
2023/02/19 07:01:28;;;;;;;14.80;11.10;;;231.00;2252.80;;;;;;5052918;28;20037;-61
2023/02/19 07:03:54;;;;;;;18.02;13.07;;;231.00;2252.80;;;;;;5050459;28;20455;-60
2023/02/19 07:06:22;;;;;;;119.75;78.80;;;231.20;2252.80;;;;;;5041543;28;20108;-63
2023/02/19 07:08:48;;;;;;;94.05;61.67;;;231.30;2252.80;;;;;;5040004;28;20033;-63
2023/02/19 07:11:14;;;;;;;78.47;51.08;;;256.10;2252.80;;;;;;5041472;28;20107;-59
2023/02/19 07:13:40;;;;;;;38.50;25.50;;;256.30;2252.80;;;;;;5041467;28;20017;-60
2023/02/19 07:16:08;;;;;;;30.30;20.92;;;256.40;2252.80;;;;;;5037631;28;20022;-64
2023/02/19 07:18:34;;;;;;;31.50;23.17;;;256.60;2252.80;;;;;;5032449;28;20357;-62
2023/02/19 07:21:09;;;;;;;25.45;16.75;;;256.70;2252.80;;;;;;5032394;28;20065;-65
2023/02/19 07:23:35;;;;;;;18.20;14.38;;;256.80;2252.80;;;;;;5032391;28;20021;-61
2023/02/19 07:26:01;;;;;;;22.35;15.52;;;256.80;2252.80;;;;;;5032128;28;20025;-62
2023/02/19 07:28:27;;;;;;;23.70;15.93;;;256.90;2252.80;;;;;;5031904;28;20029;-61
2023/02/19 07:30:53;;;;;;;19.88;14.05;;;256.90;2252.80;;;;;;5032309;28;20026;-63
2023/02/19 07:33:19;;;;;;;20.65;13.50;;;281.60;2278.40;;;;;;5032331;28;20025;-63
2023/02/19 07:35:49;;;;;;;18.02;13.23;;;281.70;2278.40;;;;;;5032296;28;20076;-65
2023/02/19 07:38:20;;;;;;;15.40;10.73;;;281.70;2278.40;;;;;;5032059;28;20029;-64
2023/02/19 07:40:52;;;;;;;16.55;11.02;;;256.90;2252.80;;;;;;5031882;28;20041;-62
2023/02/19 07:43:18;;;;;;;25.33;16.83;;;282.10;2278.40;;;;;;5031700;28;20064;-62
2023/02/19 07:45:44;;;;;;;77.72;50.45;;;307.50;2304.00;;;;;;5031730;28;20095;-63
2023/02/19 07:48:10;;;;;;;65.10;40.63;;;307.80;2278.40;;;;;;5031755;28;20029;-61
2023/02/19 07:50:36;;;;;;;61.72;44.72;;;358.50;2124.80;;;;;;5031934;28;20116;-62
2023/02/19 07:53:01;;;;;;;52.05;38.22;;;384.50;1996.80;;;;;;5031714;28;20100;-62
2023/02/19 07:55:27;;;;;;;113.40;88.90;;;410.40;1894.40;;;;;;5031516;28;20480;-64
2023/02/19 07:57:53;;;;;;;182.50;154.43;;;460.80;1792.00;;;;;;5031360;28;21143;-65
2023/02/19 08:00:18;;;;;;;201.98;170.75;;;460.90;1792.00;;;;;;5031385;28;20037;-62
2023/02/19 08:03:00;;;;;;;188.80;163.55;;;461.30;1740.80;;;;;;5031629;28;20031;-62
2023/02/19 08:05:30;;;;;;;179.25;159.38;;;461.70;1715.20;;;;;;5031648;28;20028;-59
2023/02/19 08:07:57;;;;;;;185.55;162.05;;;487.00;1664.00;;;;;;5031514;28;20032;-61
2023/02/19 08:13:21;;;;;;;166.82;144.35;;;486.80;1638.40;;;;;;5031409;28;20553;-63
2023/02/19 08:16:01;;;;;;;152.35;135.95;;;487.00;1612.80;;;;;;5031344;28;20025;-62
2023/02/19 08:18:30;;;;;;;143.80;128.70;;;512.20;1587.20;;;;;;5031140;28;20602;-63
2023/02/19 08:20:58;;;;;;;125.07;110.47;;;512.90;1536.00;;;;;;5030940;28;20029;-62
2023/02/19 08:23:24;;;;;;;87.97;74.30;;;512.90;1484.80;;;;;;5031201;28;20028;-65
2023/02/19 08:25:51;;;;;;;106.88;95.82;;;537.70;1510.40;;;;;;5029050;28;20107;-61
2023/02/19 08:28:17;;;;;;;40.97;33.67;;;563.20;1459.20;;;;;;5028786;28;20021;-61
2023/02/19 08:30:45;;;;;;;54.80;41.25;;;538.50;1408.00;;;;;;5028892;28;20364;-62
2023/02/19 08:33:17;;;;;;;56.47;47.83;;;563.70;1408.00;;;;;;5028782;28;20061;-63
2023/02/19 08:35:43;;;;;;;62.28;54.25;;;589.20;1382.40;;;;;;5029219;28;20112;-63
2023/02/19 08:38:10;;;;;;;59.40;53.05;;;589.70;1356.80;;;;;;5028712;28;20773;-62
2023/02/19 08:40:37;;;;;;;58.85;52.47;;;589.70;1356.80;;;;;;5028337;28;20040;-63
2023/02/19 08:43:05;;;;;;;60.70;54.33;;;589.60;1356.80;;;;;;5028682;28;20506;-62
2023/02/19 08:45:31;;;;;;;67.38;57.72;;;589.60;1356.80;;;;;;5028515;28;20079;-62
2023/02/19 08:47:57;;;;;;;74.05;65.88;;;589.60;1356.80;;;;;;5028523;28;20083;-63
2023/02/19 08:50:23;;;;;;;69.25;62.03;;;614.50;1356.80;;;;;;5028811;28;20568;-63
2023/02/19 08:52:49;;;;;;;62.40;55.72;;;614.80;1331.20;;;;;;5027941;28;20052;-62
2023/02/19 08:55:14;;;;;;;64.32;57.78;;;614.70;1331.20;;;;;;5028697;28;20052;-64
2023/02/19 08:57:40;;;;;;;50.67;45.20;;;615.30;1305.60;;;;;;5028409;28;20025;-65
2023/02/19 09:00:07;;;;;;;55.10;49.10;;;640.00;1280.00;;;;;;5028463;28;20483;-62
2023/02/19 09:02:34;;;;;;;46.17;41.28;;;614.90;1305.60;;;;;;5028550;28;20030;-61
2023/02/19 09:05:00;;;;;;;56.72;50.47;;;640.10;1280.00;;;;;;5028006;28;20033;-61
2023/02/19 09:07:26;;;;;;;64.88;55.65;;;691.20;1203.20;;;;;;5028553;28;20018;-62
2023/02/19 09:09:52;;;;;;;89.22;75.20;;;666.30;1228.80;;;;;;5028463;28;20025;-62
2023/02/19 09:12:18;;;;;;;77.50;65.55;;;691.40;1228.80;;;;;;5027979;28;20112;-63
2023/02/19 09:14:43;;;;;;;71.78;61.78;;;665.90;1254.40;;;;;;5027883;28;20079;-62
2023/02/19 09:17:09;;;;;;;68.90;55.60;;;665.60;1254.40;;;;;;5028060;28;20056;-62
2023/02/19 09:19:35;;;;;;;70.45;59.78;;;665.70;1254.40;;;;;;5027781;28;20026;-62
2023/02/19 09:22:03;;;;;;;70.53;61.85;;;666.20;1254.40;;;;;;5028397;28;20036;-62
2023/02/19 09:24:29;;;;;;;58.15;51.95;;;666.00;1254.40;;;;;;5028436;28;20025;-62
2023/02/19 09:26:54;;;;;;;39.30;33.88;;;640.90;1228.80;;;;;;5028506;28;20538;-61
2023/02/19 09:29:23;;;;;;;35.03;29.85;;;640.50;1228.80;;;;;;5028195;28;20025;-63
2023/02/19 09:31:49;;;;;;;32.13;27.05;;;615.20;1228.80;;;;;;5027640;28;20026;-63
2023/02/19 09:34:14;;;;;;;34.03;29.65;;;615.30;1254.40;;;;;;5028280;28;20095;-63
2023/02/19 09:36:40;;;;;;;35.53;29.98;;;614.50;1280.00;;;;;;5030692;28;20025;-62
2023/02/19 09:39:07;;;;;;;39.85;34.28;;;589.20;1356.80;;;;;;5030821;28;20021;-62
2023/02/19 09:41:45;;;;;;;45.22;35.17;;;563.80;1408.00;;;;;;5034434;28;20033;-63
2023/02/19 09:44:15;;;;;;;56.53;45.17;;;537.90;1459.20;;;;;;5032658;28;20056;-63
2023/02/19 09:46:50;;;;;;;49.90;40.53;;;512.10;1510.40;;;;;;5060045;28;20158;-62
2023/02/19 09:49:17;;;;;;;43.63;34.88;;;487.20;1561.60;;;;;;5057939;28;20404;-63
2023/02/19 09:51:49;;;;;;;47.45;37.83;;;486.90;1587.20;;;;;;5060430;28;20158;-62
2023/02/19 09:54:25;;;;;;;51.67;38.47;;;487.00;1587.20;;;;;;5064102;28;20024;-62
2023/02/19 09:56:55;;;;;;;57.63;38.33;;;486.50;1612.80;;;;;;5050800;28;20127;-63
2023/02/19 09:59:24;;;;;;;50.08;38.83;;;461.70;1638.40;;;;;;5047512;28;20076;-62
2023/02/19 10:02:01;;;;;;;42.40;33.35;;;461.70;1638.40;;;;;;5047571;28;20095;-62
2023/02/19 10:04:27;;;;;;;40.90;31.90;;;486.60;1638.40;;;;;;5048031;28;20027;-62
2023/02/19 10:06:59;;;;;;;37.03;27.27;;;486.60;1638.40;;;;;;5052823;28;20390;-61
2023/02/19 10:09:27;;;;;;;24.42;19.02;;;486.70;1612.80;;;;;;5057246;28;20028;-63
2023/02/19 10:11:55;;;;;;;27.60;19.30;;;461.50;1638.40;;;;;;5045947;28;20426;-60
2023/02/19 10:14:38;;;;;;;35.35;23.08;;;486.50;1664.00;;;;;;5052282;28;20036;-61
2023/02/19 10:17:05;;;;;;;28.65;24.08;;;486.40;1638.40;;;;;;5054998;28;20023;-61
2023/02/19 10:19:32;;;;;;;45.22;28.25;;;461.30;1638.40;;;;;;5055281;28;20116;-61
2023/02/19 10:22:01;;;;;;;34.10;24.98;;;461.20;1638.40;;;;;;5055790;28;20034;-61
2023/02/19 10:24:29;;;;;;;16.65;14.38;;;461.60;1638.40;;;;;;5057296;28;20530;-60
2023/02/19 10:26:55;;;;;;;19.40;16.60;;;461.50;1612.80;;;;;;5057822;28;20024;-62
2023/02/19 10:29:23;;;;;;;11.43;9.90;;;461.50;1587.20;;;;;;5060490;28;20070;-61
2023/02/19 10:31:50;;;;;;;16.73;12.15;;;461.50;1510.40;;;;;;5061400;28;20020;-60
2023/02/19 10:34:21;;;;;;;18.02;13.27;;;486.40;1536.00;;;;;;5058458;28;20353;-62
2023/02/19 10:36:51;;;;;;;20.77;13.50;;;486.40;1536.00;;;;;;5050650;28;20025;-62
2023/02/19 10:39:31;;;;;;;23.08;15.15;;;486.40;1536.00;;;;;;5051136;28;20811;-61
2023/02/19 10:41:59;;;;;;;18.38;13.93;;;461.60;1536.00;;;;;;5050673;28;20506;-62
2023/02/19 10:44:32;;;;;;;16.20;12.40;;;461.50;1561.60;;;;;;5043346;28;20077;-61
2023/02/19 10:47:00;;;;;;;20.13;12.15;;;461.60;1536.00;;;;;;5030823;28;20126;-62
2023/02/19 10:49:30;;;;;;;17.58;10.32;;;461.70;1510.40;;;;;;5030663;28;20014;-63
2023/02/19 10:52:01;;;;;;;14.40;11.70;;;461.60;1510.40;;;;;;5030744;28;20387;-62
2023/02/19 10:54:30;;;;;;;15.35;11.88;;;486.40;1510.40;;;;;;5030737;28;20091;-62
2023/02/19 10:57:19;;;;;;;18.33;11.55;;;486.40;1510.40;;;;;;5030672;28;20036;-62
2023/02/19 11:00:00;;;;;;;14.10;10.52;;;461.30;1536.00;;;;;;5016264;28;20030;-63
2023/02/19 11:02:27;;;;;;;26.60;11.88;;;461.50;1536.00;;;;;;5030219;28;20115;-62
2023/02/19 11:05:08;;;;;;;33.60;23.52;;;461.50;1536.00;;;;;;5030575;28;20447;-62
2023/02/19 11:07:42;;;;;;;24.55;16.05;;;461.70;1536.00;;;;;;5030383;28;20056;-65
2023/02/19 11:10:26;;;;;;;14.00;9.32;;;486.50;1510.40;;;;;;5030381;28;20106;-61
2023/02/19 11:12:55;;;;;;;17.20;12.10;;;486.40;1510.40;;;;;;5039358;28;20036;-64
2023/02/19 11:15:31;;;;;;;19.35;13.90;;;486.40;1510.40;;;;;;5039354;28;20045;-63
2023/02/19 11:18:12;;;;;;;17.85;12.60;;;486.50;1510.40;;;;;;5032525;28;20029;-62
2023/02/19 11:20:59;;;;;;;12.60;9.88;;;486.50;1510.40;;;;;;5046733;28;20063;-62
2023/02/19 11:23:45;;;;;;;20.27;15.85;;;486.70;1484.80;;;;;;5050137;28;20035;-62
2023/02/19 11:26:20;;;;;;;20.70;15.13;;;486.60;1536.00;;;;;;5040870;28;20025;-61
2023/02/19 11:28:55;;;;;;;32.60;20.70;;;487.10;1536.00;;;;;;5039425;28;20039;-61
2023/02/19 11:31:23;;;;;;;23.88;17.65;;;487.10;1561.60;;;;;;5018389;28;20041;-61
2023/02/19 11:33:58;;;;;;;18.52;13.40;;;487.30;1561.60;;;;;;5033404;28;20479;-62
2023/02/19 11:36:36;;;;;;;22.75;17.80;;;512.00;1536.00;;;;;;5037070;28;20548;-62
2023/02/19 11:39:23;;;;;;;21.33;15.38;;;512.20;1536.00;;;;;;5037993;28;20031;-62
2023/02/19 11:42:13;;;;;;;24.63;20.13;;;512.20;1536.00;;;;;;5039780;28;20041;-62
2023/02/19 11:44:48;;;;;;;26.45;19.27;;;512.10;1536.00;;;;;;5040936;28;20053;-61
2023/02/19 11:47:41;;;;;;;28.95;23.70;;;512.20;1536.00;;;;;;5038266;28;20069;-62
2023/02/19 11:50:44;;;;;;;19.17;14.07;;;512.30;1510.40;;;;;;5034972;28;20378;-63
2023/02/19 11:53:27;;;;;;;22.60;18.33;;;512.10;1510.40;;;;;;5031640;28;20044;-61
2023/02/19 11:56:22;;;;;;;31.27;23.48;;;512.20;1510.40;;;;;;5036710;28;20467;-61
2023/02/19 11:58:56;;;;;;;16.27;12.75;;;512.10;1510.40;;;;;;5036734;28;20025;-62
2023/02/19 12:01:43;;;;;;;17.52;13.50;;;487.00;1536.00;;;;;;5038156;28;20037;-61
2023/02/19 12:04:28;;;;;;;17.83;13.50;;;486.40;1561.60;;;;;;5038998;28;20472;-62
2023/02/19 12:07:17;;;;;;;16.35;11.88;;;486.80;1561.60;;;;;;5039269;28;20021;-61
2023/02/19 12:09:54;;;;;;;22.40;16.83;;;486.40;1561.60;;;;;;5038153;28;20494;-63
2023/02/19 12:12:32;;;;;;;29.90;21.63;;;486.60;1561.60;;;;;;5039797;28;20060;-61
2023/02/19 12:15:01;;;;;;;21.35;17.50;;;486.80;1561.60;;;;;;5044332;28;20443;-61
2023/02/19 12:17:41;;;;;;;15.88;12.65;;;486.60;1587.20;;;;;;5044493;28;20022;-61
2023/02/19 12:20:13;;;;;;;16.58;12.45;;;461.50;1612.80;;;;;;5032803;28;20025;-62
2023/02/19 12:22:57;;;;;;;23.15;12.27;;;486.40;1612.80;;;;;;5032179;28;20052;-62
2023/02/19 12:25:41;;;;;;;23.67;19.05;;;486.60;1612.80;;;;;;5044816;28;20115;-61
2023/02/19 12:28:09;;;;;;;24.25;17.33;;;486.40;1612.80;;;;;;5035765;28;20091;-61
2023/02/19 12:31:00;;;;;;;19.45;15.23;;;486.70;1612.80;;;;;;5037850;28;20025;-61
2023/02/19 12:33:28;;;;;;;23.25;19.20;;;486.70;1612.80;;;;;;5038532;28;20056;-61
2023/02/19 12:36:16;;;;;;;26.45;19.00;;;486.50;1587.20;;;;;;5037813;28;20029;-61
2023/02/19 12:39:01;;;;;;;21.05;16.27;;;486.70;1587.20;;;;;;5033121;28;20040;-62